Hadley, Minnesota
Current Conditions -  °F | °C
As of 5:56 PM on Saturday 22 Nov 2014 (Local Time) from KDVP Reporting Station
Clear Clear  
Wind Chill: 28°   Ceiling: Unl
Heat Index: 36°   Visibility: 7mi
Dew Point: 35°   Wind: 10mph
Humidity: 98%   Direction: 170°S
Pressure: 29.5"   Gusts: NA
Location:  44.0326°N, 95.9478°W
Report Text: KDVP 222356Z AUTO 17009KT 7SM CLR 02/02 A2950 RMK AO2 T00210018 10025 20006
Loading
Personal Weather Stations






























Interactive Weather Map New forecast layout! Learn more

10-Day Weather Forecast

Advertisements
Track Severe Weather on mobile